Briefing drone pour Marsac-sur-l'isle

Rechercher une autre localisation

Conditions de vol :


Nous sommes le : Vendredi 17 septembre 2021
Il est 18:59 UTC (20:59 LT)

Lever de soleil : 05:11 UTC (07:11 LT)
Coucher de soleil : 18:31 UTC (20:31 LT)

Météo

L'essentiel des conditions de vol

VIGILANCE MÉTÉO FRANCE - Dordogne (24)
Pas de vigilances particulieres
METAR de LFBX
LFBX 171830Z AUTO 11001KT CAVOK 16/13 Q1014

Date d'émission: 17/09/2021
Heure d'émission: 18:30 UTC
Vent: 110° pour 1 KT (2 km/h)
Visibilité horizontale: > 10 km
Plafond : Plafond et visibilité OK (CAVOK)
Température: 16 °C
Point de rosée: 13 °C
Humidité: 82%
Pression (QNH): 1014 hPa
Prévision 24h pour Perigueux (3 km)
Vent : 215° pour 2 KT (7 km/h)
Temperature Maxi: 17 °C
Temperature Min: 17 °C
Humidité : 86%
Condition : Légère pluie



Warning: count(): Parameter must be an array or an object that implements Countable in /homepages/6/d509196549/htdocs/droneoxygene/briefing.php on line 743
WEBCAM POUR MARSAC-SUR-L'ISLE

Réglementation

Voler en sécurité

CARTES AERONAUTIQUE 1/500.000
CARTES VAC (LFBX)
SUP AIP




Chargement des AIP...
NOTAM (MARSAC-SUR-L'ISLE + Terrain à proximité / FIR )




Chargement des NOTAMS...
CONTACT PREFECTURE 24


Avertissement : Les données mises à disposition sont indicatives. Oxygène Drone ne pourra être tenu responsable de dégâts causés aux biens et aux personnes.